sensor_id;sensor_type;location;lat;lon;timestamp;P1;durP1;ratioP1;P2;durP2;ratioP2
54368;SDS011;40266;52.434;17.056;2023-05-10T00:27:27;16.00;;;7.50;;
54368;SDS011;40266;52.434;17.056;2023-05-10T00:53:33;13.10;;;6.20;;
54368;SDS011;40266;52.434;17.056;2023-05-10T00:57:10;13.60;;;5.90;;
54368;SDS011;40266;52.434;17.056;2023-05-10T01:00:44;15.70;;;6.20;;
54368;SDS011;40266;52.434;17.056;2023-05-10T01:03:53;14.90;;;6.00;;
54368;SDS011;40266;52.434;17.056;2023-05-10T01:06:37;11.20;;;6.00;;
54368;SDS011;40266;52.434;17.056;2023-05-10T01:09:21;12.10;;;6.10;;
54368;SDS011;40266;52.434;17.056;2023-05-10T01:12:04;13.40;;;5.80;;
54368;SDS011;40266;52.434;17.056;2023-05-10T01:14:50;13.50;;;5.60;;
54368;SDS011;40266;52.434;17.056;2023-05-10T01:17:33;11.50;;;5.30;;
54368;SDS011;40266;52.434;17.056;2023-05-10T01:20:17;13.40;;;6.00;;
54368;SDS011;40266;52.434;17.056;2023-05-10T01:32:09;17.70;;;6.90;;
54368;SDS011;40266;52.434;17.056;2023-05-10T01:38:16;10.50;;;5.40;;
54368;SDS011;40266;52.434;17.056;2023-05-10T01:41:13;15.50;;;6.40;;
54368;SDS011;40266;52.434;17.056;2023-05-10T01:44:12;14.40;;;6.50;;
54368;SDS011;40266;52.434;17.056;2023-05-10T01:47:07;12.60;;;5.70;;
54368;SDS011;40266;52.434;17.056;2023-05-10T01:49:54;15.40;;;6.00;;
54368;SDS011;40266;52.434;17.056;2023-05-10T01:52:41;13.80;;;5.60;;
54368;SDS011;40266;52.434;17.056;2023-05-10T01:55:28;12.60;;;5.70;;
54368;SDS011;40266;52.434;17.056;2023-05-10T01:58:17;11.00;;;5.80;;
54368;SDS011;40266;52.434;17.056;2023-05-10T02:01:04;12.40;;;6.00;;
54368;SDS011;40266;52.434;17.056;2023-05-10T02:03:49;14.70;;;5.90;;
54368;SDS011;40266;52.434;17.056;2023-05-10T02:06:34;14.70;;;6.30;;
54368;SDS011;40266;52.434;17.056;2023-05-10T02:09:18;10.30;;;5.60;;
54368;SDS011;40266;52.434;17.056;2023-05-10T02:12:02;13.10;;;5.90;;
54368;SDS011;40266;52.434;17.056;2023-05-10T02:14:47;14.40;;;6.40;;
54368;SDS011;40266;52.434;17.056;2023-05-10T02:17:34;13.60;;;6.50;;
54368;SDS011;40266;52.434;17.056;2023-05-10T02:20:20;13.70;;;5.90;;
54368;SDS011;40266;52.434;17.056;2023-05-10T02:23:04;14.00;;;6.10;;
54368;SDS011;40266;52.434;17.056;2023-05-10T02:25:49;14.00;;;6.10;;
54368;SDS011;40266;52.434;17.056;2023-05-10T02:28:35;13.70;;;5.70;;
54368;SDS011;40266;52.434;17.056;2023-05-10T02:31:20;15.20;;;6.30;;
54368;SDS011;40266;52.434;17.056;2023-05-10T02:34:05;13.10;;;6.00;;
54368;SDS011;40266;52.434;17.056;2023-05-10T02:36:51;15.10;;;6.20;;
54368;SDS011;40266;52.434;17.056;2023-05-10T02:39:36;14.70;;;6.10;;
54368;SDS011;40266;52.434;17.056;2023-05-10T02:42:23;16.10;;;5.80;;
54368;SDS011;40266;52.434;17.056;2023-05-10T02:45:13;16.30;;;6.40;;
54368;SDS011;40266;52.434;17.056;2023-05-10T02:48:00;11.20;;;5.90;;
54368;SDS011;40266;52.434;17.056;2023-05-10T02:50:44;15.20;;;6.30;;
54368;SDS011;40266;52.434;17.056;2023-05-10T02:53:32;12.20;;;6.10;;
54368;SDS011;40266;52.434;17.056;2023-05-10T02:56:20;23.70;;;6.60;;
54368;SDS011;40266;52.434;17.056;2023-05-10T02:59:08;22.40;;;7.20;;
54368;SDS011;40266;52.434;17.056;2023-05-10T03:01:51;18.30;;;7.00;;
54368;SDS011;40266;52.434;17.056;2023-05-10T03:04:34;18.40;;;6.80;;
54368;SDS011;40266;52.434;17.056;2023-05-10T03:07:18;17.40;;;6.70;;
54368;SDS011;40266;52.434;17.056;2023-05-10T03:10:04;17.00;;;6.60;;
54368;SDS011;40266;52.434;17.056;2023-05-10T03:16:08;16.10;;;6.40;;
54368;SDS011;40266;52.434;17.056;2023-05-10T03:19:02;15.10;;;7.50;;
54368;SDS011;40266;52.434;17.056;2023-05-10T03:21:59;15.90;;;7.00;;
54368;SDS011;40266;52.434;17.056;2023-05-10T03:24:49;13.10;;;6.90;;
54368;SDS011;40266;52.434;17.056;2023-05-10T03:27:34;18.80;;;7.50;;
54368;SDS011;40266;52.434;17.056;2023-05-10T03:30:19;14.20;;;6.70;;
54368;SDS011;40266;52.434;17.056;2023-05-10T03:33:06;16.00;;;6.50;;
54368;SDS011;40266;52.434;17.056;2023-05-10T03:35:51;20.60;;;6.50;;
54368;SDS011;40266;52.434;17.056;2023-05-10T03:41:16;14.80;;;6.10;;
54368;SDS011;40266;52.434;17.056;2023-05-10T03:43:59;18.30;;;6.50;;
54368;SDS011;40266;52.434;17.056;2023-05-10T03:46:43;18.40;;;7.00;;
54368;SDS011;40266;52.434;17.056;2023-05-10T03:49:27;17.70;;;6.30;;
54368;SDS011;40266;52.434;17.056;2023-05-10T03:52:10;12.20;;;5.90;;
54368;SDS011;40266;52.434;17.056;2023-05-10T03:54:53;11.70;;;5.70;;
54368;SDS011;40266;52.434;17.056;2023-05-10T03:57:38;17.30;;;6.80;;
54368;SDS011;40266;52.434;17.056;2023-05-10T04:00:21;11.70;;;5.60;;
54368;SDS011;40266;52.434;17.056;2023-05-10T04:03:05;10.60;;;5.50;;
54368;SDS011;40266;52.434;17.056;2023-05-10T04:05:48;14.50;;;6.00;;
54368;SDS011;40266;52.434;17.056;2023-05-10T04:08:31;19.40;;;6.90;;
54368;SDS011;40266;52.434;17.056;2023-05-10T04:13:56;17.00;;;7.10;;
54368;SDS011;40266;52.434;17.056;2023-05-10T04:19:22;12.70;;;5.50;;
54368;SDS011;40266;52.434;17.056;2023-05-10T04:22:05;21.30;;;7.20;;
54368;SDS011;40266;52.434;17.056;2023-05-10T04:24:48;13.80;;;6.90;;
54368;SDS011;40266;52.434;17.056;2023-05-10T04:27:31;18.10;;;6.30;;
54368;SDS011;40266;52.434;17.056;2023-05-10T04:30:14;15.10;;;6.80;;
54368;SDS011;40266;52.434;17.056;2023-05-10T04:32:57;12.20;;;5.70;;
54368;SDS011;40266;52.434;17.056;2023-05-10T04:35:40;12.60;;;5.80;;
54368;SDS011;40266;52.434;17.056;2023-05-10T04:38:23;16.40;;;6.70;;
54368;SDS011;40266;52.434;17.056;2023-05-10T04:41:07;18.20;;;6.60;;
54368;SDS011;40266;52.434;17.056;2023-05-10T04:43:51;19.40;;;6.50;;
54368;SDS011;40266;52.434;17.056;2023-05-10T04:46:33;16.10;;;7.00;;
54368;SDS011;40266;52.434;17.056;2023-05-10T04:49:16;13.10;;;6.30;;
54368;SDS011;40266;52.434;17.056;2023-05-10T04:52:00;14.20;;;6.00;;
54368;SDS011;40266;52.434;17.056;2023-05-10T04:54:43;14.90;;;5.80;;
54368;SDS011;40266;52.434;17.056;2023-05-10T05:00:09;16.40;;;6.10;;
54368;SDS011;40266;52.434;17.056;2023-05-10T05:02:52;16.10;;;6.20;;
54368;SDS011;40266;52.434;17.056;2023-05-10T05:05:35;15.50;;;6.10;;
54368;SDS011;40266;52.434;17.056;2023-05-10T05:11:00;12.80;;;5.50;;
54368;SDS011;40266;52.434;17.056;2023-05-10T05:13:43;13.90;;;5.90;;
54368;SDS011;40266;52.434;17.056;2023-05-10T05:16:26;15.00;;;6.00;;
54368;SDS011;40266;52.434;17.056;2023-05-10T05:19:09;15.00;;;6.30;;
54368;SDS011;40266;52.434;17.056;2023-05-10T05:21:52;21.20;;;6.60;;
54368;SDS011;40266;52.434;17.056;2023-05-10T05:24:35;36.90;;;7.30;;
54368;SDS011;40266;52.434;17.056;2023-05-10T05:27:21;17.10;;;6.60;;
54368;SDS011;40266;52.434;17.056;2023-05-10T05:30:07;16.40;;;6.00;;
54368;SDS011;40266;52.434;17.056;2023-05-10T05:32:50;16.00;;;5.50;;
54368;SDS011;40266;52.434;17.056;2023-05-10T05:35:33;15.50;;;5.70;;
54368;SDS011;40266;52.434;17.056;2023-05-10T05:38:16;13.30;;;5.40;;
54368;SDS011;40266;52.434;17.056;2023-05-10T05:41:00;20.50;;;6.50;;
54368;SDS011;40266;52.434;17.056;2023-05-10T05:43:43;15.30;;;6.30;;
54368;SDS011;40266;52.434;17.056;2023-05-10T05:46:25;35.10;;;8.10;;
54368;SDS011;40266;52.434;17.056;2023-05-10T05:49:09;21.50;;;6.40;;
54368;SDS011;40266;52.434;17.056;2023-05-10T05:51:52;15.10;;;5.90;;
54368;SDS011;40266;52.434;17.056;2023-05-10T05:54:35;12.80;;;6.00;;
54368;SDS011;40266;52.434;17.056;2023-05-10T05:57:18;21.00;;;9.10;;
54368;SDS011;40266;52.434;17.056;2023-05-10T06:00:01;16.20;;;7.40;;
54368;SDS011;40266;52.434;17.056;2023-05-10T06:05:36;13.40;;;6.30;;
54368;SDS011;40266;52.434;17.056;2023-05-10T06:08:19;19.30;;;6.10;;
54368;SDS011;40266;52.434;17.056;2023-05-10T06:11:02;32.40;;;7.30;;
54368;SDS011;40266;52.434;17.056;2023-05-10T06:13:46;12.60;;;5.20;;
54368;SDS011;40266;52.434;17.056;2023-05-10T06:16:30;16.10;;;5.90;;
54368;SDS011;40266;52.434;17.056;2023-05-10T06:19:13;16.00;;;5.70;;
54368;SDS011;40266;52.434;17.056;2023-05-10T06:21:56;15.80;;;5.40;;
54368;SDS011;40266;52.434;17.056;2023-05-10T06:24:39;14.00;;;5.30;;
54368;SDS011;40266;52.434;17.056;2023-05-10T06:27:22;12.60;;;5.80;;
54368;SDS011;40266;52.434;17.056;2023-05-10T06:30:05;12.40;;;5.90;;
54368;SDS011;40266;52.434;17.056;2023-05-10T06:32:55;10.40;;;4.80;;
54368;SDS011;40266;52.434;17.056;2023-05-10T06:35:38;19.30;;;5.60;;
54368;SDS011;40266;52.434;17.056;2023-05-10T06:38:21;14.50;;;5.00;;
54368;SDS011;40266;52.434;17.056;2023-05-10T06:41:04;9.10;;;5.10;;
54368;SDS011;40266;52.434;17.056;2023-05-10T06:43:47;12.90;;;5.10;;
54368;SDS011;40266;52.434;17.056;2023-05-10T06:46:31;12.60;;;5.00;;
54368;SDS011;40266;52.434;17.056;2023-05-10T06:49:13;19.90;;;6.10;;
54368;SDS011;40266;52.434;17.056;2023-05-10T06:51:56;14.60;;;5.00;;
54368;SDS011;40266;52.434;17.056;2023-05-10T06:54:39;9.60;;;4.40;;
54368;SDS011;40266;52.434;17.056;2023-05-10T06:57:22;12.50;;;4.80;;
54368;SDS011;40266;52.434;17.056;2023-05-10T07:00:13;20.20;;;5.90;;
54368;SDS011;40266;52.434;17.056;2023-05-10T07:02:58;13.40;;;5.00;;
54368;SDS011;40266;52.434;17.056;2023-05-10T07:05:41;9.10;;;4.60;;
54368;SDS011;40266;52.434;17.056;2023-05-10T07:08:24;14.60;;;4.80;;
54368;SDS011;40266;52.434;17.056;2023-05-10T07:11:08;14.40;;;5.10;;
54368;SDS011;40266;52.434;17.056;2023-05-10T07:13:51;10.10;;;4.50;;
54368;SDS011;40266;52.434;17.056;2023-05-10T07:16:34;10.70;;;4.80;;
54368;SDS011;40266;52.434;17.056;2023-05-10T07:19:17;13.00;;;4.80;;
54368;SDS011;40266;52.434;17.056;2023-05-10T07:22:01;11.60;;;4.90;;
54368;SDS011;40266;52.434;17.056;2023-05-10T07:24:44;16.80;;;5.30;;
54368;SDS011;40266;52.434;17.056;2023-05-10T07:27:28;11.90;;;4.70;;
54368;SDS011;40266;52.434;17.056;2023-05-10T07:30:11;9.30;;;5.10;;
54368;SDS011;40266;52.434;17.056;2023-05-10T07:32:54;9.80;;;4.50;;
54368;SDS011;40266;52.434;17.056;2023-05-10T07:35:38;8.20;;;4.40;;
54368;SDS011;40266;52.434;17.056;2023-05-10T07:38:21;13.40;;;4.30;;
54368;SDS011;40266;52.434;17.056;2023-05-10T07:41:04;13.20;;;4.30;;
54368;SDS011;40266;52.434;17.056;2023-05-10T07:43:47;12.40;;;3.90;;
54368;SDS011;40266;52.434;17.056;2023-05-10T07:46:30;14.50;;;4.90;;
54368;SDS011;40266;52.434;17.056;2023-05-10T07:49:13;8.60;;;4.10;;
54368;SDS011;40266;52.434;17.056;2023-05-10T07:51:56;9.20;;;4.40;;
54368;SDS011;40266;52.434;17.056;2023-05-10T07:54:39;10.40;;;5.10;;
54368;SDS011;40266;52.434;17.056;2023-05-10T07:57:22;9.70;;;4.40;;
54368;SDS011;40266;52.434;17.056;2023-05-10T08:00:05;10.70;;;4.60;;
54368;SDS011;40266;52.434;17.056;2023-05-10T08:02:56;12.50;;;4.40;;
54368;SDS011;40266;52.434;17.056;2023-05-10T08:05:39;13.80;;;4.60;;
54368;SDS011;40266;52.434;17.056;2023-05-10T08:08:22;15.20;;;5.20;;
54368;SDS011;40266;52.434;17.056;2023-05-10T08:11:06;20.70;;;5.00;;
54368;SDS011;40266;52.434;17.056;2023-05-10T08:13:50;9.70;;;4.70;;
54368;SDS011;40266;52.434;17.056;2023-05-10T08:16:33;11.30;;;4.60;;
54368;SDS011;40266;52.434;17.056;2023-05-10T08:19:16;11.30;;;4.70;;
54368;SDS011;40266;52.434;17.056;2023-05-10T08:22:04;15.00;;;4.80;;
54368;SDS011;40266;52.434;17.056;2023-05-10T08:24:47;10.40;;;3.80;;
54368;SDS011;40266;52.434;17.056;2023-05-10T08:27:30;14.20;;;4.80;;
54368;SDS011;40266;52.434;17.056;2023-05-10T08:30:14;12.40;;;4.70;;
54368;SDS011;40266;52.434;17.056;2023-05-10T08:32:57;10.30;;;4.10;;
54368;SDS011;40266;52.434;17.056;2023-05-10T08:35:40;10.20;;;4.40;;
54368;SDS011;40266;52.434;17.056;2023-05-10T08:38:23;8.50;;;4.00;;
54368;SDS011;40266;52.434;17.056;2023-05-10T08:41:07;10.80;;;4.10;;
54368;SDS011;40266;52.434;17.056;2023-05-10T08:43:51;9.90;;;3.80;;
54368;SDS011;40266;52.434;17.056;2023-05-10T08:46:35;9.00;;;3.70;;
54368;SDS011;40266;52.434;17.056;2023-05-10T08:49:22;6.50;;;3.70;;
54368;SDS011;40266;52.434;17.056;2023-05-10T08:52:07;8.90;;;3.70;;
54368;SDS011;40266;52.434;17.056;2023-05-10T08:54:51;9.90;;;3.90;;
54368;SDS011;40266;52.434;17.056;2023-05-10T08:57:35;11.70;;;4.10;;
54368;SDS011;40266;52.434;17.056;2023-05-10T09:00:18;9.90;;;4.10;;
54368;SDS011;40266;52.434;17.056;2023-05-10T09:03:03;10.90;;;3.30;;
54368;SDS011;40266;52.434;17.056;2023-05-10T09:05:48;10.90;;;3.90;;
54368;SDS011;40266;52.434;17.056;2023-05-10T09:08:31;9.60;;;3.70;;
54368;SDS011;40266;52.434;17.056;2023-05-10T09:11:14;19.60;;;4.50;;
54368;SDS011;40266;52.434;17.056;2023-05-10T09:13:58;12.40;;;3.90;;
54368;SDS011;40266;52.434;17.056;2023-05-10T09:16:41;14.80;;;4.60;;
54368;SDS011;40266;52.434;17.056;2023-05-10T09:19:25;8.00;;;3.80;;
54368;SDS011;40266;52.434;17.056;2023-05-10T09:22:07;13.90;;;4.30;;
54368;SDS011;40266;52.434;17.056;2023-05-10T09:25:10;12.40;;;3.30;;
54368;SDS011;40266;52.434;17.056;2023-05-10T09:27:56;13.10;;;3.00;;
54368;SDS011;40266;52.434;17.056;2023-05-10T09:30:39;11.70;;;3.80;;
54368;SDS011;40266;52.434;17.056;2023-05-10T09:33:23;33.00;;;4.50;;
54368;SDS011;40266;52.434;17.056;2023-05-10T09:36:07;12.30;;;3.30;;
54368;SDS011;40266;52.434;17.056;2023-05-10T09:38:51;12.80;;;3.50;;
54368;SDS011;40266;52.434;17.056;2023-05-10T09:41:35;11.00;;;2.80;;
54368;SDS011;40266;52.434;17.056;2023-05-10T09:44:18;14.30;;;4.20;;
54368;SDS011;40266;52.434;17.056;2023-05-10T09:47:01;25.60;;;3.70;;
54368;SDS011;40266;52.434;17.056;2023-05-10T09:49:49;8.10;;;3.10;;
54368;SDS011;40266;52.434;17.056;2023-05-10T09:53:16;13.40;;;3.50;;
54368;SDS011;40266;52.434;17.056;2023-05-10T09:55:41;6.00;;;3.20;;
54368;SDS011;40266;52.434;17.056;2023-05-10T09:58:27;11.20;;;3.30;;
54368;SDS011;40266;52.434;17.056;2023-05-10T10:01:11;11.80;;;3.10;;
54368;SDS011;40266;52.434;17.056;2023-05-10T10:03:57;11.40;;;2.80;;
54368;SDS011;40266;52.434;17.056;2023-05-10T10:06:41;9.70;;;2.80;;
54368;SDS011;40266;52.434;17.056;2023-05-10T10:09:24;30.40;;;5.00;;
54368;SDS011;40266;52.434;17.056;2023-05-10T10:12:07;19.40;;;3.60;;
54368;SDS011;40266;52.434;17.056;2023-05-10T10:14:51;10.20;;;2.40;;
54368;SDS011;40266;52.434;17.056;2023-05-10T10:17:35;12.00;;;3.00;;
54368;SDS011;40266;52.434;17.056;2023-05-10T10:20:21;6.40;;;2.90;;
54368;SDS011;40266;52.434;17.056;2023-05-10T10:23:05;10.40;;;3.70;;
54368;SDS011;40266;52.434;17.056;2023-05-10T10:25:48;8.80;;;2.60;;
54368;SDS011;40266;52.434;17.056;2023-05-10T10:28:48;7.50;;;2.80;;
54368;SDS011;40266;52.434;17.056;2023-05-10T10:31:46;10.90;;;2.50;;
54368;SDS011;40266;52.434;17.056;2023-05-10T10:34:35;15.00;;;3.00;;
54368;SDS011;40266;52.434;17.056;2023-05-10T10:37:18;7.50;;;2.40;;
54368;SDS011;40266;52.434;17.056;2023-05-10T10:40:07;13.80;;;3.60;;
54368;SDS011;40266;52.434;17.056;2023-05-10T10:43:25;8.20;;;2.60;;
54368;SDS011;40266;52.434;17.056;2023-05-10T10:46:16;7.30;;;2.80;;
54368;SDS011;40266;52.434;17.056;2023-05-10T10:49:09;23.40;;;3.80;;
54368;SDS011;40266;52.434;17.056;2023-05-10T10:55:09;12.30;;;2.80;;
54368;SDS011;40266;52.434;17.056;2023-05-10T10:57:57;8.60;;;2.40;;
54368;SDS011;40266;52.434;17.056;2023-05-10T11:00:44;4.60;;;2.50;;
54368;SDS011;40266;52.434;17.056;2023-05-10T11:03:28;6.90;;;2.60;;
54368;SDS011;40266;52.434;17.056;2023-05-10T11:06:11;13.20;;;2.90;;
54368;SDS011;40266;52.434;17.056;2023-05-10T11:08:54;7.60;;;2.80;;
54368;SDS011;40266;52.434;17.056;2023-05-10T11:11:52;7.60;;;2.30;;
54368;SDS011;40266;52.434;17.056;2023-05-10T11:14:40;11.50;;;3.10;;
54368;SDS011;40266;52.434;17.056;2023-05-10T11:17:24;6.90;;;3.00;;
54368;SDS011;40266;52.434;17.056;2023-05-10T11:20:10;15.90;;;3.90;;
54368;SDS011;40266;52.434;17.056;2023-05-10T11:22:57;6.80;;;3.00;;
54368;SDS011;40266;52.434;17.056;2023-05-10T11:25:44;8.30;;;3.00;;
54368;SDS011;40266;52.434;17.056;2023-05-10T11:28:28;8.80;;;3.20;;
54368;SDS011;40266;52.434;17.056;2023-05-10T11:31:13;13.00;;;3.40;;
54368;SDS011;40266;52.434;17.056;2023-05-10T11:33:57;7.20;;;3.20;;
54368;SDS011;40266;52.434;17.056;2023-05-10T11:36:42;12.30;;;3.10;;
54368;SDS011;40266;52.434;17.056;2023-05-10T11:39:26;9.60;;;3.90;;
54368;SDS011;40266;52.434;17.056;2023-05-10T11:42:11;5.60;;;2.50;;
54368;SDS011;40266;52.434;17.056;2023-05-10T11:44:54;8.10;;;2.70;;
54368;SDS011;40266;52.434;17.056;2023-05-10T11:47:38;9.60;;;3.40;;
54368;SDS011;40266;52.434;17.056;2023-05-10T11:50:24;7.70;;;3.00;;
54368;SDS011;40266;52.434;17.056;2023-05-10T11:53:08;6.60;;;3.10;;
54368;SDS011;40266;52.434;17.056;2023-05-10T11:55:51;9.40;;;3.20;;
54368;SDS011;40266;52.434;17.056;2023-05-10T11:58:34;16.20;;;3.30;;
54368;SDS011;40266;52.434;17.056;2023-05-10T12:01:18;7.90;;;3.00;;
54368;SDS011;40266;52.434;17.056;2023-05-10T12:04:01;10.10;;;2.80;;
54368;SDS011;40266;52.434;17.056;2023-05-10T12:06:44;30.90;;;4.00;;
54368;SDS011;40266;52.434;17.056;2023-05-10T12:09:29;16.00;;;3.50;;
54368;SDS011;40266;52.434;17.056;2023-05-10T12:12:25;8.30;;;3.20;;
54368;SDS011;40266;52.434;17.056;2023-05-10T12:15:13;11.40;;;3.20;;
54368;SDS011;40266;52.434;17.056;2023-05-10T12:18:03;8.00;;;2.80;;
54368;SDS011;40266;52.434;17.056;2023-05-10T12:20:47;5.00;;;2.10;;
54368;SDS011;40266;52.434;17.056;2023-05-10T12:23:30;18.10;;;3.20;;
54368;SDS011;40266;52.434;17.056;2023-05-10T12:26:13;11.20;;;3.20;;
54368;SDS011;40266;52.434;17.056;2023-05-10T12:29:18;4.90;;;2.70;;
54368;SDS011;40266;52.434;17.056;2023-05-10T12:32:01;8.40;;;3.90;;
54368;SDS011;40266;52.434;17.056;2023-05-10T12:34:46;10.40;;;2.80;;
54368;SDS011;40266;52.434;17.056;2023-05-10T12:37:29;12.60;;;4.10;;
54368;SDS011;40266;52.434;17.056;2023-05-10T12:40:12;13.00;;;3.50;;
54368;SDS011;40266;52.434;17.056;2023-05-10T12:42:55;11.30;;;3.30;;
54368;SDS011;40266;52.434;17.056;2023-05-10T12:45:38;12.30;;;3.10;;
54368;SDS011;40266;52.434;17.056;2023-05-10T12:48:21;7.10;;;3.10;;
54368;SDS011;40266;52.434;17.056;2023-05-10T12:51:04;25.10;;;3.70;;
54368;SDS011;40266;52.434;17.056;2023-05-10T12:53:48;8.10;;;2.80;;
54368;SDS011;40266;52.434;17.056;2023-05-10T12:56:31;10.70;;;4.10;;
54368;SDS011;40266;52.434;17.056;2023-05-10T12:59:14;12.60;;;3.10;;
54368;SDS011;40266;52.434;17.056;2023-05-10T13:01:57;18.20;;;3.50;;
54368;SDS011;40266;52.434;17.056;2023-05-10T13:04:40;7.80;;;2.90;;
54368;SDS011;40266;52.434;17.056;2023-05-10T13:07:24;14.60;;;3.90;;
54368;SDS011;40266;52.434;17.056;2023-05-10T13:10:08;8.40;;;3.00;;
54368;SDS011;40266;52.434;17.056;2023-05-10T13:12:51;10.00;;;2.90;;
54368;SDS011;40266;52.434;17.056;2023-05-10T13:15:34;29.10;;;4.20;;
54368;SDS011;40266;52.434;17.056;2023-05-10T13:18:17;9.10;;;3.10;;
54368;SDS011;40266;52.434;17.056;2023-05-10T13:21:00;7.20;;;3.20;;
54368;SDS011;40266;52.434;17.056;2023-05-10T13:23:42;5.90;;;2.80;;
54368;SDS011;40266;52.434;17.056;2023-05-10T13:26:25;6.00;;;2.90;;
54368;SDS011;40266;52.434;17.056;2023-05-10T13:29:09;8.90;;;2.60;;
54368;SDS011;40266;52.434;17.056;2023-05-10T13:31:52;11.30;;;2.70;;
54368;SDS011;40266;52.434;17.056;2023-05-10T13:34:35;5.20;;;2.80;;
54368;SDS011;40266;52.434;17.056;2023-05-10T13:37:18;6.00;;;2.60;;
54368;SDS011;40266;52.434;17.056;2023-05-10T13:40:01;7.70;;;2.90;;
54368;SDS011;40266;52.434;17.056;2023-05-10T13:42:44;7.10;;;3.00;;
54368;SDS011;40266;52.434;17.056;2023-05-10T13:45:28;6.80;;;2.80;;
54368;SDS011;40266;52.434;17.056;2023-05-10T13:48:11;16.00;;;3.10;;
54368;SDS011;40266;52.434;17.056;2023-05-10T13:50:54;5.60;;;2.90;;
54368;SDS011;40266;52.434;17.056;2023-05-10T13:53:37;10.00;;;3.70;;
54368;SDS011;40266;52.434;17.056;2023-05-10T13:56:20;7.80;;;3.50;;
54368;SDS011;40266;52.434;17.056;2023-05-10T13:59:03;9.20;;;3.50;;
54368;SDS011;40266;52.434;17.056;2023-05-10T14:01:46;11.60;;;3.80;;
54368;SDS011;40266;52.434;17.056;2023-05-10T14:04:29;6.60;;;2.90;;
54368;SDS011;40266;52.434;17.056;2023-05-10T14:07:13;13.40;;;3.80;;
54368;SDS011;40266;52.434;17.056;2023-05-10T14:09:56;18.30;;;4.30;;
54368;SDS011;40266;52.434;17.056;2023-05-10T14:12:39;10.00;;;3.90;;
54368;SDS011;40266;52.434;17.056;2023-05-10T14:15:23;12.20;;;3.80;;
54368;SDS011;40266;52.434;17.056;2023-05-10T14:18:06;6.60;;;3.60;;
54368;SDS011;40266;52.434;17.056;2023-05-10T14:20:49;8.30;;;3.10;;
54368;SDS011;40266;52.434;17.056;2023-05-10T14:23:33;12.80;;;4.20;;
54368;SDS011;40266;52.434;17.056;2023-05-10T14:26:16;7.80;;;3.40;;
54368;SDS011;40266;52.434;17.056;2023-05-10T14:28:59;5.60;;;2.80;;
54368;SDS011;40266;52.434;17.056;2023-05-10T14:31:42;15.60;;;3.50;;
54368;SDS011;40266;52.434;17.056;2023-05-10T14:34:25;6.40;;;3.00;;
54368;SDS011;40266;52.434;17.056;2023-05-10T14:37:10;6.40;;;3.10;;
54368;SDS011;40266;52.434;17.056;2023-05-10T14:39:53;8.10;;;3.30;;
54368;SDS011;40266;52.434;17.056;2023-05-10T14:42:36;7.50;;;3.20;;
54368;SDS011;40266;52.434;17.056;2023-05-10T14:45:20;4.60;;;3.00;;
54368;SDS011;40266;52.434;17.056;2023-05-10T14:48:04;6.40;;;3.00;;
54368;SDS011;40266;52.434;17.056;2023-05-10T14:50:47;12.90;;;3.30;;
54368;SDS011;40266;52.434;17.056;2023-05-10T14:53:32;10.50;;;3.60;;
54368;SDS011;40266;52.434;17.056;2023-05-10T14:56:15;13.60;;;3.90;;
54368;SDS011;40266;52.434;17.056;2023-05-10T14:58:58;7.40;;;3.10;;
54368;SDS011;40266;52.434;17.056;2023-05-10T15:01:42;12.60;;;3.90;;
54368;SDS011;40266;52.434;17.056;2023-05-10T15:04:26;6.60;;;3.40;;
54368;SDS011;40266;52.434;17.056;2023-05-10T15:07:10;13.80;;;3.80;;
54368;SDS011;40266;52.434;17.056;2023-05-10T15:09:57;9.40;;;3.40;;
54368;SDS011;40266;52.434;17.056;2023-05-10T15:12:39;4.70;;;3.00;;
54368;SDS011;40266;52.434;17.056;2023-05-10T15:15:22;12.50;;;3.80;;
54368;SDS011;40266;52.434;17.056;2023-05-10T15:18:06;7.80;;;3.20;;
54368;SDS011;40266;52.434;17.056;2023-05-10T15:20:48;9.70;;;3.40;;
54368;SDS011;40266;52.434;17.056;2023-05-10T15:23:31;14.10;;;3.40;;
54368;SDS011;40266;52.434;17.056;2023-05-10T15:26:14;12.70;;;3.50;;
54368;SDS011;40266;52.434;17.056;2023-05-10T15:28:57;13.00;;;4.00;;
54368;SDS011;40266;52.434;17.056;2023-05-10T15:31:40;23.70;;;4.70;;
54368;SDS011;40266;52.434;17.056;2023-05-10T15:34:23;12.30;;;3.50;;
54368;SDS011;40266;52.434;17.056;2023-05-10T15:37:06;16.00;;;3.80;;
54368;SDS011;40266;52.434;17.056;2023-05-10T15:39:49;6.90;;;3.20;;
54368;SDS011;40266;52.434;17.056;2023-05-10T15:42:32;10.80;;;3.20;;
54368;SDS011;40266;52.434;17.056;2023-05-10T15:45:15;7.80;;;3.50;;
54368;SDS011;40266;52.434;17.056;2023-05-10T15:47:59;9.90;;;3.90;;
54368;SDS011;40266;52.434;17.056;2023-05-10T15:50:42;9.30;;;3.40;;
54368;SDS011;40266;52.434;17.056;2023-05-10T15:53:25;8.00;;;3.20;;
54368;SDS011;40266;52.434;17.056;2023-05-10T15:56:08;6.80;;;3.70;;
54368;SDS011;40266;52.434;17.056;2023-05-10T15:58:51;8.80;;;3.30;;
54368;SDS011;40266;52.434;17.056;2023-05-10T16:01:34;19.10;;;4.50;;
54368;SDS011;40266;52.434;17.056;2023-05-10T16:04:17;7.50;;;3.50;;
54368;SDS011;40266;52.434;17.056;2023-05-10T16:07:00;4.60;;;3.50;;
54368;SDS011;40266;52.434;17.056;2023-05-10T16:09:42;14.40;;;4.30;;
54368;SDS011;40266;52.434;17.056;2023-05-10T16:12:25;10.70;;;3.60;;
54368;SDS011;40266;52.434;17.056;2023-05-10T16:15:08;11.20;;;3.60;;
54368;SDS011;40266;52.434;17.056;2023-05-10T16:17:52;9.70;;;3.70;;
54368;SDS011;40266;52.434;17.056;2023-05-10T16:20:35;46.20;;;8.70;;
54368;SDS011;40266;52.434;17.056;2023-05-10T16:23:19;7.30;;;3.50;;
54368;SDS011;40266;52.434;17.056;2023-05-10T16:26:02;6.50;;;3.70;;
54368;SDS011;40266;52.434;17.056;2023-05-10T16:28:45;8.70;;;4.00;;
54368;SDS011;40266;52.434;17.056;2023-05-10T16:31:28;8.60;;;3.30;;
54368;SDS011;40266;52.434;17.056;2023-05-10T16:34:11;9.00;;;3.30;;
54368;SDS011;40266;52.434;17.056;2023-05-10T16:36:54;5.60;;;3.60;;
54368;SDS011;40266;52.434;17.056;2023-05-10T16:39:37;6.30;;;3.40;;
54368;SDS011;40266;52.434;17.056;2023-05-10T16:42:20;14.10;;;4.00;;
54368;SDS011;40266;52.434;17.056;2023-05-10T16:45:03;7.20;;;3.90;;
54368;SDS011;40266;52.434;17.056;2023-05-10T16:47:50;10.10;;;3.80;;
54368;SDS011;40266;52.434;17.056;2023-05-10T16:50:35;9.20;;;3.20;;
54368;SDS011;40266;52.434;17.056;2023-05-10T16:53:18;6.20;;;3.10;;
54368;SDS011;40266;52.434;17.056;2023-05-10T16:56:02;8.60;;;3.20;;
54368;SDS011;40266;52.434;17.056;2023-05-10T16:58:45;18.90;;;4.30;;
54368;SDS011;40266;52.434;17.056;2023-05-10T17:01:29;27.30;;;5.40;;
54368;SDS011;40266;52.434;17.056;2023-05-10T17:04:12;12.20;;;3.90;;
54368;SDS011;40266;52.434;17.056;2023-05-10T17:06:55;11.70;;;3.60;;
54368;SDS011;40266;52.434;17.056;2023-05-10T17:09:40;29.70;;;4.50;;
54368;SDS011;40266;52.434;17.056;2023-05-10T17:12:24;10.40;;;3.80;;
54368;SDS011;40266;52.434;17.056;2023-05-10T17:15:08;21.00;;;4.60;;
54368;SDS011;40266;52.434;17.056;2023-05-10T17:17:51;20.10;;;4.10;;
54368;SDS011;40266;52.434;17.056;2023-05-10T17:20:34;10.30;;;3.90;;
54368;SDS011;40266;52.434;17.056;2023-05-10T17:23:17;21.60;;;5.50;;
54368;SDS011;40266;52.434;17.056;2023-05-10T17:26:02;19.80;;;4.60;;
54368;SDS011;40266;52.434;17.056;2023-05-10T17:28:46;23.50;;;5.80;;
54368;SDS011;40266;52.434;17.056;2023-05-10T17:31:29;12.20;;;4.50;;
54368;SDS011;40266;52.434;17.056;2023-05-10T17:34:11;15.80;;;5.10;;